createdAt,value
2017-04-07T00:00:35.709Z,10.12
2017-04-07T00:01:35.745Z,10.14
2017-04-07T00:02:35.778Z,10.19
2017-04-07T00:03:35.817Z,10.19
2017-04-07T00:04:35.851Z,10.12
2017-04-07T00:05:35.903Z,10.07
2017-04-07T00:06:35.917Z,10.01
2017-04-07T00:07:35.955Z,10.14
2017-04-07T00:08:35.993Z,10.03
2017-04-07T00:09:36.026Z,10.04
2017-04-07T00:10:36.074Z,10
2017-04-07T00:11:36.401Z,10.03
2017-04-07T00:12:36.134Z,10.06
2017-04-07T00:13:36.169Z,10.04
2017-04-07T00:14:36.208Z,9.89
2017-04-07T00:15:36.247Z,9.96
2017-04-07T00:16:36.281Z,9.93
2017-04-07T00:17:36.316Z,9.97
2017-04-07T00:18:36.387Z,9.99
2017-04-07T00:19:36.686Z,9.94
2017-04-07T00:20:36.421Z,9.91
2017-04-07T00:21:36.455Z,9.93
2017-04-07T00:22:36.490Z,10.04
2017-04-07T00:23:36.523Z,9.88
2017-04-07T00:24:36.561Z,9.94
2017-04-07T00:25:36.598Z,9.89
2017-04-07T00:26:36.938Z,9.88
2017-04-07T00:27:36.666Z,9.86
2017-04-07T00:28:37.007Z,9.81
2017-04-07T00:29:36.736Z,9.82
2017-04-07T00:30:36.775Z,9.85
2017-04-07T00:31:36.809Z,9.76
2017-04-07T00:32:36.844Z,9.75
2017-04-07T00:33:37.182Z,9.75
2017-04-07T00:34:37.217Z,9.7
2017-04-07T00:35:36.950Z,9.71
2017-04-07T00:36:36.984Z,9.67
2017-04-07T00:37:37.023Z,9.6
2017-04-07T00:38:37.054Z,9.58
2017-04-07T00:39:37.092Z,9.61
2017-04-07T00:40:37.125Z,9.71
2017-04-07T00:41:37.159Z,9.63
2017-04-07T00:42:37.195Z,9.53
2017-04-07T00:43:37.230Z,9.61
2017-04-07T00:44:37.268Z,9.57
2017-04-07T00:45:37.302Z,9.53
2017-04-07T00:46:37.336Z,9.56
2017-04-07T00:47:37.373Z,9.56
2017-04-07T00:48:37.710Z,9.48
2017-04-07T00:49:37.443Z,9.53
2017-04-07T00:50:37.479Z,9.45
2017-04-07T00:51:37.513Z,9.48
2017-04-07T00:52:37.546Z,9.5
2017-04-07T00:53:37.583Z,9.49
2017-04-07T00:54:37.618Z,9.56
2017-04-07T00:55:37.654Z,9.57
2017-04-07T00:56:37.690Z,9.58
2017-04-07T00:57:37.724Z,9.61
2017-04-07T00:58:37.758Z,9.61
2017-04-07T00:59:37.798Z,9.57
2017-04-07T01:00:37.830Z,9.57
2017-04-07T01:01:37.867Z,9.58
2017-04-07T01:02:38.205Z,9.58
2017-04-07T01:03:37.931Z,9.53
2017-04-07T01:04:38.277Z,9.6
2017-04-07T01:05:38.305Z,9.58
2017-04-07T01:06:38.046Z,9.6
2017-04-07T01:07:38.075Z,9.52
2017-04-07T01:08:38.111Z,9.6
2017-04-07T01:09:38.447Z,9.56
2017-04-07T01:10:38.181Z,9.49
2017-04-07T01:11:38.518Z,9.61
2017-04-07T01:12:38.257Z,9.57
2017-04-07T01:13:38.285Z,9.53
2017-04-07T01:14:38.320Z,9.52
2017-04-07T01:15:38.659Z,9.61
2017-04-07T01:16:38.696Z,9.57
2017-04-07T01:17:38.427Z,9.61
2017-04-07T01:18:38.763Z,9.53
2017-04-07T01:19:38.506Z,9.43
2017-04-07T01:20:38.529Z,9.56
2017-04-07T01:21:38.876Z,9.57
2017-04-07T01:22:38.600Z,9.56
2017-04-07T01:23:38.637Z,9.6
2017-04-07T01:24:38.675Z,9.58
2017-04-07T01:25:38.710Z,9.53
2017-04-07T01:26:38.741Z,9.5
2017-04-07T01:27:38.780Z,9.57
2017-04-07T01:28:38.814Z,9.52
2017-04-07T01:29:39.151Z,9.49
2017-04-07T01:30:39.190Z,9.56
2017-04-07T01:31:39.105Z,9.53
2017-04-07T01:32:38.957Z,9.5
2017-04-07T01:33:38.988Z,9.5
2017-04-07T01:34:39.030Z,9.49
2017-04-07T01:35:39.059Z,9.53
2017-04-07T01:36:39.094Z,9.48
2017-04-07T01:37:39.129Z,9.46
2017-04-07T01:38:39.163Z,9.5
2017-04-07T01:39:39.201Z,9.6
2017-04-07T01:40:39.239Z,9.53
2017-04-07T01:41:39.272Z,9.53
2017-04-07T01:42:39.305Z,9.52
2017-04-07T01:43:39.344Z,9.53
2017-04-07T01:44:39.374Z,9.56
2017-04-07T01:45:39.414Z,9.49
2017-04-07T01:46:39.448Z,9.5
2017-04-07T01:47:39.479Z,9.48
2017-04-07T01:48:39.528Z,9.5
2017-04-07T01:49:39.556Z,9.46
2017-04-07T01:50:39.588Z,9.43
2017-04-07T01:51:39.620Z,9.49
2017-04-07T01:52:39.662Z,9.56
2017-04-07T01:53:39.690Z,9.61
2017-04-07T01:54:39.739Z,9.57
2017-04-07T01:55:40.069Z,9.56
2017-04-07T01:56:39.799Z,9.52
2017-04-07T01:57:39.834Z,9.61
2017-04-07T01:58:39.869Z,9.61
2017-04-07T01:59:40.207Z,9.56
2017-04-07T02:00:39.940Z,9.5
2017-04-07T02:01:40.277Z,9.63
2017-04-07T02:02:40.006Z,9.63
2017-04-07T02:03:40.045Z,9.64
2017-04-07T02:04:40.081Z,9.6
2017-04-07T02:05:40.416Z,9.61
2017-04-07T02:06:40.148Z,9.57
2017-04-07T02:07:40.185Z,9.53
2017-04-07T02:08:40.524Z,9.6
2017-04-07T02:09:40.558Z,9.58
2017-04-07T02:10:40.592Z,9.57
2017-04-07T02:11:40.322Z,9.63
2017-04-07T02:12:40.356Z,9.57
2017-04-07T02:13:40.699Z,9.6
2017-04-07T02:14:40.431Z,9.49
2017-04-07T02:15:40.770Z,9.49
2017-04-07T02:16:40.800Z,9.49
2017-04-07T02:17:40.536Z,9.56
2017-04-07T02:18:40.570Z,9.42
2017-04-07T02:19:40.913Z,9.48
2017-04-07T02:20:40.646Z,9.45
2017-04-07T02:21:40.676Z,9.49
2017-04-07T02:22:40.731Z,9.52
2017-04-07T02:23:40.747Z,9.49
2017-04-07T02:24:40.782Z,9.46
2017-04-07T02:25:40.829Z,9.46
2017-04-07T02:26:40.853Z,9.49
2017-04-07T02:27:40.887Z,9.58
2017-04-07T02:28:40.923Z,9.43
2017-04-07T02:29:41.258Z,9.45
2017-04-07T02:30:41.290Z,9.39
2017-04-07T02:31:41.029Z,9.34
2017-04-07T02:32:41.072Z,9.34
2017-04-07T02:33:41.401Z,9.3
2017-04-07T02:34:41.133Z,9.31
2017-04-07T02:35:41.170Z,9.32
2017-04-07T02:36:41.205Z,9.18
2017-04-07T02:37:41.241Z,9.18
2017-04-07T02:38:41.274Z,9.2
2017-04-07T02:39:41.313Z,9.25
2017-04-07T02:40:41.348Z,9.21
2017-04-07T02:41:41.681Z,9.21
2017-04-07T02:42:41.417Z,9.13
2017-04-07T02:43:41.446Z,9.16
2017-04-07T02:44:41.484Z,9.1
2017-04-07T02:45:41.525Z,9.05
2017-04-07T02:46:41.860Z,9.05
2017-04-07T02:47:41.587Z,9.06
2017-04-07T02:48:41.624Z,9.05
2017-04-07T02:49:41.658Z,9.02
2017-04-07T02:50:41.696Z,9.04
2017-04-07T02:51:41.730Z,9.06
2017-04-07T02:52:41.767Z,9.15
2017-04-07T02:53:41.799Z,9.04
2017-04-07T02:54:41.834Z,9.12
2017-04-07T02:55:41.869Z,9.12
2017-04-07T02:56:42.210Z,9.04
2017-04-07T02:57:41.938Z,9.13
2017-04-07T02:58:41.976Z,9.12
2017-04-07T02:59:42.008Z,9.02
2017-04-07T03:00:42.043Z,9.06
2017-04-07T03:01:42.078Z,9.06
2017-04-07T03:02:42.116Z,9.05
2017-04-07T03:03:42.145Z,9.05
2017-04-07T03:04:42.183Z,9.1
2017-04-07T03:05:42.218Z,8.99
2017-04-07T03:06:42.258Z,8.99
2017-04-07T03:07:42.287Z,9.02
2017-04-07T03:08:42.324Z,9.01
2017-04-07T03:09:42.355Z,8.99
2017-04-07T03:10:42.386Z,9.06
2017-04-07T03:11:42.427Z,9.01
2017-04-07T03:12:42.461Z,8.94
2017-04-07T03:13:42.494Z,8.96
2017-04-07T03:14:42.534Z,8.97
2017-04-07T03:15:42.865Z,9.01
2017-04-07T03:16:42.906Z,9.01
2017-04-07T03:17:42.635Z,8.97
2017-04-07T03:18:42.670Z,8.94
2017-04-07T03:19:42.716Z,8.94
2017-04-07T03:20:42.744Z,8.93
2017-04-07T03:21:42.775Z,8.86
2017-04-07T03:22:42.810Z,8.9
2017-04-07T03:23:42.841Z,8.83
2017-04-07T03:24:42.886Z,8.83
2017-04-07T03:25:42.915Z,8.84
2017-04-07T03:26:42.952Z,8.87
2017-04-07T03:27:42.985Z,8.86
2017-04-07T03:28:43.020Z,8.81
2017-04-07T03:29:43.059Z,8.87
2017-04-07T03:30:43.089Z,8.81
2017-04-07T03:31:43.130Z,8.73
2017-04-07T03:32:43.460Z,8.81
2017-04-07T03:33:43.193Z,8.75
2017-04-07T03:34:43.225Z,8.75
2017-04-07T03:35:43.259Z,8.71
2017-04-07T03:36:43.301Z,8.65
2017-04-07T03:37:43.331Z,8.75
2017-04-07T03:38:43.676Z,8.66
2017-04-07T03:39:43.397Z,8.69
2017-04-07T03:40:43.448Z,8.58
2017-04-07T03:41:43.471Z,8.58
2017-04-07T03:42:43.805Z,8.54
2017-04-07T03:43:43.539Z,8.54
2017-04-07T03:44:43.879Z,8.57
2017-04-07T03:45:43.607Z,8.53
2017-04-07T03:46:43.646Z,8.53
2017-04-07T03:47:43.676Z,8.62
2017-04-07T03:48:43.716Z,8.57
2017-04-07T03:49:43.744Z,8.5
2017-04-07T03:50:44.084Z,8.55
2017-04-07T03:51:44.121Z,8.5
2017-04-07T03:52:43.848Z,8.57
2017-04-07T03:53:43.892Z,8.51
2017-04-07T03:54:43.918Z,8.53
2017-04-07T03:55:43.956Z,8.51
2017-04-07T03:56:43.987Z,8.51
2017-04-07T03:57:44.049Z,8.51
2017-04-07T03:58:44.058Z,8.5
2017-04-07T03:59:44.395Z,8.42
2017-04-07T04:00:44.128Z,8.37
2017-04-07T04:01:44.166Z,8.53
2017-04-07T04:02:44.197Z,8.5
2017-04-07T04:03:44.231Z,8.5
2017-04-07T04:04:44.262Z,8.54
2017-04-07T04:05:44.302Z,8.54
2017-04-07T04:06:44.638Z,8.36
2017-04-07T04:07:44.372Z,8.51
2017-04-07T04:08:44.406Z,8.42
2017-04-07T04:09:44.437Z,8.4
2017-04-07T04:10:44.471Z,8.37
2017-04-07T04:11:44.506Z,8.44
2017-04-07T04:12:44.541Z,8.37
2017-04-07T04:13:44.575Z,8.42
2017-04-07T04:14:44.608Z,8.36
2017-04-07T04:15:44.643Z,8.42
2017-04-07T04:16:44.681Z,8.44
2017-04-07T04:17:44.712Z,8.39
2017-04-07T04:18:44.751Z,8.35
2017-04-07T04:19:44.784Z,8.33
2017-04-07T04:20:44.814Z,8.33
2017-04-07T04:21:44.850Z,8.39
2017-04-07T04:22:45.186Z,8.36
2017-04-07T04:23:45.218Z,8.36
2017-04-07T04:24:44.956Z,8.33
2017-04-07T04:25:45.300Z,8.28
2017-04-07T04:26:45.029Z,8.32
2017-04-07T04:27:45.055Z,8.3
2017-04-07T04:28:45.095Z,8.21
2017-04-07T04:29:45.125Z,8.25
2017-04-07T04:30:45.462Z,8.26
2017-04-07T04:31:45.192Z,8.26
2017-04-07T04:32:45.226Z,8.3
2017-04-07T04:33:45.271Z,8.26
2017-04-07T04:34:45.297Z,8.32
2017-04-07T04:35:45.332Z,8.32
2017-04-07T04:36:45.366Z,8.32
2017-04-07T04:37:45.435Z,8.37
2017-04-07T04:38:45.434Z,8.3
2017-04-07T04:39:45.467Z,8.33
2017-04-07T04:40:45.505Z,8.3
2017-04-07T04:41:45.537Z,8.42
2017-04-07T04:42:45.574Z,8.37
2017-04-07T04:43:45.605Z,8.39
2017-04-07T04:44:45.940Z,8.42
2017-04-07T04:45:46.000Z,8.37
2017-04-07T04:46:45.712Z,8.35
2017-04-07T04:47:45.746Z,8.39
2017-04-07T04:48:45.779Z,8.39
2017-04-07T04:49:46.119Z,8.44
2017-04-07T04:50:45.847Z,8.42
2017-04-07T04:51:45.886Z,8.39
2017-04-07T04:52:45.917Z,8.35
2017-04-07T04:53:46.254Z,8.35
2017-04-07T04:54:45.984Z,8.39
2017-04-07T04:55:46.022Z,8.37
2017-04-07T04:56:46.057Z,8.44
2017-04-07T04:57:46.087Z,8.35
2017-04-07T04:58:46.128Z,8.44
2017-04-07T04:59:46.158Z,8.4
2017-04-07T05:00:46.204Z,8.37
2017-04-07T05:01:46.234Z,8.39
2017-04-07T05:02:46.264Z,8.44
2017-04-07T05:03:47.227Z,8.37
2017-04-07T05:04:46.331Z,8.44
2017-04-07T05:05:46.369Z,8.45
2017-04-07T05:06:46.709Z,8.54
2017-04-07T05:07:46.442Z,8.51
2017-04-07T05:08:46.498Z,8.47
2017-04-07T05:09:46.507Z,8.45
2017-04-07T05:10:46.539Z,8.5
2017-04-07T05:11:46.577Z,8.51
2017-04-07T05:12:46.607Z,8.5
2017-04-07T05:13:46.638Z,8.48
2017-04-07T05:14:46.679Z,8.45
2017-04-07T05:15:46.708Z,8.51
2017-04-07T05:16:46.748Z,8.54
2017-04-07T05:17:46.779Z,8.51
2017-04-07T05:18:46.812Z,8.55
2017-04-07T05:19:46.849Z,8.47
2017-04-07T05:20:46.885Z,8.51
2017-04-07T05:21:46.918Z,8.57
2017-04-07T05:22:46.986Z,8.6
2017-04-07T05:23:46.986Z,8.63
2017-04-07T05:24:47.118Z,8.58
2017-04-07T05:25:47.057Z,8.57
2017-04-07T05:26:47.091Z,8.58
2017-04-07T05:27:47.132Z,8.63
2017-04-07T05:28:47.465Z,8.62
2017-04-07T05:29:47.497Z,8.58
2017-04-07T05:30:47.254Z,8.55
2017-04-07T05:31:47.571Z,8.68
2017-04-07T05:32:47.324Z,8.73
2017-04-07T05:33:47.334Z,8.73
2017-04-07T05:34:47.373Z,8.71
2017-04-07T05:35:47.404Z,8.71
2017-04-07T05:36:47.437Z,8.71
2017-04-07T05:37:47.467Z,8.73
2017-04-07T05:38:47.511Z,8.73
2017-04-07T05:39:47.541Z,8.71
2017-04-07T05:40:47.576Z,8.72
2017-04-07T05:41:47.611Z,8.75
2017-04-07T05:42:47.645Z,8.79
2017-04-07T05:43:47.685Z,8.69
2017-04-07T05:44:47.714Z,8.75
2017-04-07T05:45:47.749Z,8.73
2017-04-07T05:46:47.786Z,8.72
2017-04-07T05:47:47.819Z,8.68
2017-04-07T05:48:47.851Z,8.73
2017-04-07T05:49:47.888Z,8.73
2017-04-07T05:50:47.922Z,8.69
2017-04-07T05:51:47.957Z,8.72
2017-04-07T05:52:47.993Z,8.72
2017-04-07T05:53:48.035Z,8.87
2017-04-07T05:54:48.061Z,8.75
2017-04-07T05:55:48.098Z,8.78
2017-04-07T05:56:48.132Z,8.86
2017-04-07T05:57:48.169Z,8.84
2017-04-07T05:58:48.199Z,8.86
2017-04-07T05:59:48.258Z,8.78
2017-04-07T06:00:48.268Z,8.88
2017-04-07T06:01:48.912Z,8.88
2017-04-07T06:02:48.677Z,8.88
2017-04-07T06:03:48.371Z,8.9
2017-04-07T06:04:48.414Z,8.87
2017-04-07T06:05:48.446Z,8.84
2017-04-07T06:06:48.478Z,8.91
2017-04-07T06:07:48.510Z,8.91
2017-04-07T06:08:48.550Z,8.87
2017-04-07T06:09:48.883Z,8.88
2017-04-07T06:10:48.626Z,8.86
2017-04-07T06:11:48.648Z,8.79
2017-04-07T06:12:48.687Z,8.84
2017-04-07T06:13:48.728Z,8.86
2017-04-07T06:14:48.759Z,8.87
2017-04-07T06:15:48.796Z,8.88
2017-04-07T06:16:48.825Z,8.88
2017-04-07T06:17:48.867Z,8.9
2017-04-07T06:18:48.952Z,8.84
2017-04-07T06:19:48.930Z,8.87
2017-04-07T06:20:48.970Z,8.88
2017-04-07T06:21:49.003Z,8.86
2017-04-07T06:22:49.343Z,8.86
2017-04-07T06:23:49.377Z,8.88
2017-04-07T06:24:49.112Z,8.87
2017-04-07T06:25:49.141Z,8.79
2017-04-07T06:26:49.177Z,8.83
2017-04-07T06:27:49.512Z,8.81
2017-04-07T06:28:49.246Z,8.87
2017-04-07T06:29:49.276Z,8.88
2017-04-07T06:30:49.315Z,8.9
2017-04-07T06:31:49.345Z,8.93
2017-04-07T06:32:49.382Z,8.94
2017-04-07T06:33:49.443Z,8.94
2017-04-07T06:34:49.453Z,8.96
2017-04-07T06:35:49.502Z,8.86
2017-04-07T06:36:49.580Z,8.87
2017-04-07T06:37:49.558Z,8.88
2017-04-07T06:38:49.593Z,8.91
2017-04-07T06:39:49.627Z,8.94
2017-04-07T06:40:49.993Z,8.97
2017-04-07T06:41:49.998Z,8.94
2017-04-07T06:42:50.032Z,8.91
2017-04-07T06:43:49.765Z,8.94
2017-04-07T06:44:49.801Z,8.93
2017-04-07T06:45:49.837Z,9.02
2017-04-07T06:46:50.082Z,9.02
2017-04-07T06:47:49.905Z,8.99
2017-04-07T06:48:49.941Z,8.91
2017-04-07T06:49:49.977Z,8.94
2017-04-07T06:50:50.313Z,8.88
2017-04-07T06:51:50.064Z,8.86
2017-04-07T06:52:50.154Z,8.86
2017-04-07T06:53:50.155Z,8.96
2017-04-07T06:54:50.151Z,8.81
2017-04-07T06:55:50.184Z,8.88
2017-04-07T06:56:50.229Z,8.87
2017-04-07T06:57:50.288Z,8.91
2017-04-07T06:58:50.373Z,8.88
2017-04-07T06:59:50.326Z,8.88
2017-04-07T07:00:50.351Z,8.87
2017-04-07T07:01:50.428Z,8.87
2017-04-07T07:02:50.459Z,8.9
2017-04-07T07:03:50.460Z,8.91
2017-04-07T07:04:50.501Z,8.94
2017-04-07T07:05:50.541Z,8.87
2017-04-07T07:06:50.582Z,8.88
2017-04-07T07:07:50.603Z,8.86
2017-04-07T07:08:50.635Z,8.87
2017-04-07T07:09:50.970Z,8.94
2017-04-07T07:10:50.705Z,8.94
2017-04-07T07:11:51.047Z,9.01
2017-04-07T07:12:50.774Z,9.02
2017-04-07T07:13:50.812Z,8.97
2017-04-07T07:14:50.844Z,8.96
2017-04-07T07:15:50.895Z,8.94
2017-04-07T07:16:50.946Z,9.02
2017-04-07T07:17:50.992Z,8.94
2017-04-07T07:18:50.983Z,8.91
2017-04-07T07:19:51.015Z,8.97
2017-04-07T07:20:51.049Z,8.93
2017-04-07T07:21:51.088Z,8.88
2017-04-07T07:22:51.120Z,8.91
2017-04-07T07:23:51.158Z,8.87
2017-04-07T07:24:51.194Z,8.9
2017-04-07T07:25:51.228Z,8.88
2017-04-07T07:26:51.263Z,8.76
2017-04-07T07:27:51.297Z,8.83
2017-04-07T07:28:51.328Z,8.78
2017-04-07T07:29:51.666Z,8.86
2017-04-07T07:30:51.398Z,8.76
2017-04-07T07:31:51.435Z,8.79
2017-04-07T07:32:51.480Z,8.76
2017-04-07T07:33:51.503Z,8.84
2017-04-07T07:34:51.540Z,8.72
2017-04-07T07:35:51.875Z,8.72
2017-04-07T07:36:51.613Z,8.73
2017-04-07T07:37:51.639Z,8.81
2017-04-07T07:38:51.679Z,8.72
2017-04-07T07:39:51.714Z,8.73
2017-04-07T07:40:51.763Z,8.73
2017-04-07T07:41:52.119Z,8.71
2017-04-07T07:42:51.821Z,8.83
2017-04-07T07:43:51.852Z,8.75
2017-04-07T07:44:51.882Z,8.73
2017-04-07T07:45:52.949Z,8.68
2017-04-07T07:46:53.510Z,8.68
2017-04-07T07:47:51.998Z,8.71
2017-04-07T07:48:52.727Z,8.73
2017-04-07T07:49:52.741Z,8.72
2017-04-07T07:50:52.093Z,8.71
2017-04-07T07:51:52.126Z,8.79
2017-04-07T07:52:52.163Z,8.73
2017-04-07T07:53:52.493Z,8.71
2017-04-07T07:54:52.265Z,8.63
2017-04-07T07:55:52.569Z,8.6
2017-04-07T07:56:52.301Z,8.65
2017-04-07T07:57:52.637Z,8.6
2017-04-07T07:58:52.369Z,8.65
2017-04-07T07:59:52.704Z,8.62
2017-04-07T08:00:52.490Z,8.57
2017-04-07T08:01:52.775Z,8.58
2017-04-07T08:02:52.512Z,8.62
2017-04-07T08:03:52.541Z,8.57
2017-04-07T08:04:52.577Z,8.63
2017-04-07T08:05:52.612Z,8.62
2017-04-07T08:06:52.645Z,8.57
2017-04-07T08:07:52.680Z,8.53
2017-04-07T08:08:53.016Z,8.57
2017-04-07T08:09:52.748Z,8.53
2017-04-07T08:10:52.783Z,8.55
2017-04-07T08:11:52.825Z,8.53
2017-04-07T08:12:53.155Z,8.63
2017-04-07T08:13:52.890Z,8.62
2017-04-07T08:14:52.919Z,8.62
2017-04-07T08:15:53.259Z,8.55
2017-04-07T08:16:52.993Z,8.62
2017-04-07T08:17:53.027Z,8.62
2017-04-07T08:18:53.064Z,8.62
2017-04-07T08:19:53.094Z,8.62
2017-04-07T08:20:53.130Z,8.65
2017-04-07T08:21:53.165Z,8.54
2017-04-07T08:22:53.209Z,8.62
2017-04-07T08:23:53.413Z,8.54
2017-04-07T08:24:53.302Z,8.6
2017-04-07T08:25:53.305Z,8.62
2017-04-07T08:26:53.345Z,8.6
2017-04-07T08:27:53.383Z,8.54
2017-04-07T08:28:53.405Z,8.62
2017-04-07T08:29:53.740Z,8.6
2017-04-07T08:30:53.475Z,8.57
2017-04-07T08:31:53.511Z,8.53
2017-04-07T08:32:53.543Z,8.58
2017-04-07T08:33:53.577Z,8.57
2017-04-07T08:34:53.616Z,8.6
2017-04-07T08:35:53.649Z,8.65
2017-04-07T08:36:53.688Z,8.6
2017-04-07T08:37:53.744Z,8.62
2017-04-07T08:38:54.065Z,8.62
2017-04-07T08:39:53.785Z,8.62
2017-04-07T08:40:53.818Z,8.58
2017-04-07T08:41:54.766Z,8.68
2017-04-07T08:42:53.895Z,8.68
2017-04-07T08:43:53.928Z,8.73
2017-04-07T08:44:53.959Z,8.75
2017-04-07T08:45:54.302Z,8.73
2017-04-07T08:46:54.028Z,8.73
2017-04-07T08:47:54.063Z,8.81
2017-04-07T08:48:54.099Z,8.83
2017-04-07T08:49:54.130Z,8.78
2017-04-07T08:50:54.200Z,8.84
2017-04-07T08:51:54.206Z,8.9
2017-04-07T08:52:54.239Z,8.87
2017-04-07T08:53:54.387Z,8.9
2017-04-07T08:54:54.604Z,8.9
2017-04-07T08:55:54.339Z,8.84
2017-04-07T08:56:55.716Z,8.86
2017-04-07T08:57:54.712Z,8.97
2017-04-07T08:58:54.494Z,8.93
2017-04-07T08:59:54.485Z,9.02
2017-04-07T09:00:54.598Z,8.91
2017-04-07T09:01:54.554Z,8.96
2017-04-07T09:02:54.850Z,8.97
2017-04-07T09:03:54.614Z,8.96
2017-04-07T09:04:54.654Z,8.99
2017-04-07T09:05:54.696Z,9.02
2017-04-07T09:06:54.723Z,8.97
2017-04-07T09:07:54.756Z,9.02
2017-04-07T09:08:54.793Z,9.04
2017-04-07T09:09:54.829Z,8.93
2017-04-07T09:10:54.867Z,9.02
2017-04-07T09:11:54.908Z,9.01
2017-04-07T09:12:54.939Z,9.01
2017-04-07T09:13:54.976Z,8.99
2017-04-07T09:14:54.998Z,9.01
2017-04-07T09:15:55.337Z,9.04
2017-04-07T09:16:55.067Z,9.02
2017-04-07T09:17:55.115Z,8.97
2017-04-07T09:18:55.145Z,8.93
2017-04-07T09:19:55.176Z,8.87
2017-04-07T09:20:55.210Z,8.93
2017-04-07T09:21:55.259Z,8.94
2017-04-07T09:22:55.277Z,8.87
2017-04-07T09:23:55.315Z,8.87
2017-04-07T09:24:55.349Z,8.93
2017-04-07T09:25:55.384Z,8.93
2017-04-07T09:26:55.882Z,8.93
2017-04-07T09:27:55.456Z,8.97
2017-04-07T09:28:55.487Z,8.93
2017-04-07T09:29:55.522Z,9.01
2017-04-07T09:30:55.626Z,8.96
2017-04-07T09:31:55.601Z,9.04
2017-04-07T09:32:55.630Z,9.04
2017-04-07T09:33:55.666Z,8.93
2017-04-07T09:34:55.701Z,8.86
2017-04-07T09:35:55.728Z,9.02
2017-04-07T09:36:56.073Z,9.02
2017-04-07T09:37:55.802Z,9.05
2017-04-07T09:38:56.135Z,9.1
2017-04-07T09:39:55.875Z,9.1
2017-04-07T09:40:55.911Z,9.05
2017-04-07T09:41:56.244Z,9.05
2017-04-07T09:42:55.973Z,9.12
2017-04-07T09:43:56.013Z,9.06
2017-04-07T09:44:56.044Z,9.04
2017-04-07T09:45:56.084Z,9.1
2017-04-07T09:46:56.422Z,9.01
2017-04-07T09:47:56.464Z,9.05
2017-04-07T09:48:56.193Z,9.01
2017-04-07T09:49:56.234Z,9.04
2017-04-07T09:50:56.553Z,9.05
2017-04-07T09:51:56.290Z,9.06
2017-04-07T09:52:56.321Z,9.09
2017-04-07T09:53:56.363Z,9.06
2017-04-07T09:54:56.395Z,9.09
2017-04-07T09:55:56.428Z,9.01
2017-04-07T09:56:56.468Z,9.02
2017-04-07T09:57:56.814Z,9.09
2017-04-07T09:58:56.630Z,9.09
2017-04-07T09:59:56.870Z,9.05
2017-04-07T10:00:56.681Z,9.02
2017-04-07T10:01:56.943Z,9.12
2017-04-07T10:02:56.674Z,9.09
2017-04-07T10:03:56.712Z,9.12
2017-04-07T10:04:56.751Z,9.18
2017-04-07T10:05:56.811Z,9.1
2017-04-07T10:06:56.818Z,9.21
2017-04-07T10:07:56.860Z,9.2
2017-04-07T10:08:56.883Z,9.2
2017-04-07T10:09:56.922Z,9.21
2017-04-07T10:10:56.957Z,9.23
2017-04-07T10:11:56.997Z,9.18
2017-04-07T10:12:57.030Z,9.34
2017-04-07T10:13:57.060Z,9.24
2017-04-07T10:14:57.094Z,9.3
2017-04-07T10:15:57.214Z,9.34
2017-04-07T10:16:57.171Z,9.31
2017-04-07T10:17:57.504Z,9.32
2017-04-07T10:18:57.235Z,9.34
2017-04-07T10:19:57.271Z,9.32
2017-04-07T10:20:57.630Z,9.34
2017-04-07T10:21:57.684Z,9.32
2017-04-07T10:22:57.376Z,9.45
2017-04-07T10:23:57.412Z,9.4
2017-04-07T10:24:57.476Z,9.46
2017-04-07T10:25:57.493Z,9.49
2017-04-07T10:26:57.650Z,9.52
2017-04-07T10:27:57.557Z,9.49
2017-04-07T10:29:00.266Z,9.56
2017-04-07T10:29:58.063Z,9.52
2017-04-07T10:30:57.982Z,9.48
2017-04-07T10:31:57.704Z,9.48
2017-04-07T10:32:57.737Z,9.46
2017-04-07T10:33:57.770Z,9.53
2017-04-07T10:34:58.643Z,9.48
2017-04-07T10:35:58.143Z,9.46
2017-04-07T10:36:58.184Z,9.43
2017-04-07T10:37:57.906Z,9.45
2017-04-07T10:38:57.948Z,9.52
2017-04-07T10:39:57.980Z,9.42
2017-04-07T10:40:58.016Z,9.52
2017-04-07T10:41:58.596Z,9.5
2017-04-07T10:42:58.184Z,9.48
2017-04-07T10:43:58.210Z,9.5
2017-04-07T10:44:58.154Z,9.52
2017-04-07T10:45:58.539Z,9.61
2017-04-07T10:46:58.226Z,9.53
2017-04-07T10:47:58.264Z,9.58
2017-04-07T10:48:58.303Z,9.61
2017-04-07T10:49:58.332Z,9.61
2017-04-07T10:50:58.370Z,9.63
2017-04-07T10:51:58.401Z,9.57
2017-04-07T10:52:58.436Z,9.53
2017-04-07T10:53:58.471Z,9.49
2017-04-07T10:54:58.525Z,9.48
2017-04-07T10:55:58.547Z,9.45
2017-04-07T10:56:58.583Z,9.48
2017-04-07T10:57:58.616Z,9.49
2017-04-07T10:58:58.650Z,9.53
2017-04-07T10:59:58.689Z,9.49
2017-04-07T11:00:58.790Z,9.43
2017-04-07T11:01:58.756Z,9.5
2017-04-07T11:02:58.788Z,9.49
2017-04-07T11:03:58.831Z,9.43
2017-04-07T11:04:58.867Z,9.53
2017-04-07T11:05:58.917Z,9.5
2017-04-07T11:06:58.936Z,9.49
2017-04-07T11:07:59.000Z,9.6
2017-04-07T11:08:59.028Z,9.56
2017-04-07T11:09:59.340Z,9.58
2017-04-07T11:10:59.080Z,9.58
2017-04-07T11:11:59.108Z,9.63
2017-04-07T11:12:59.143Z,9.57
2017-04-07T11:13:59.785Z,9.57
2017-04-07T11:14:59.212Z,9.6
2017-04-07T11:15:59.256Z,9.6
2017-04-07T11:16:59.288Z,9.6
2017-04-07T11:17:59.627Z,9.67
2017-04-07T11:18:59.358Z,9.66
2017-04-07T11:19:59.389Z,9.7
2017-04-07T11:20:59.433Z,9.64
2017-04-07T11:21:59.465Z,9.61
2017-04-07T11:22:59.500Z,9.61
2017-04-07T11:23:59.565Z,9.61
2017-04-07T11:24:59.572Z,9.66
2017-04-07T11:25:59.604Z,9.68
2017-04-07T11:26:59.938Z,9.67
2017-04-07T11:27:59.670Z,9.71
2017-04-07T11:28:59.705Z,9.75
2017-04-07T11:29:59.738Z,9.78
2017-04-07T11:30:59.780Z,9.78
2017-04-07T11:31:59.820Z,9.83
2017-04-07T11:32:59.854Z,9.79
2017-04-07T11:33:59.887Z,9.83
2017-04-07T11:34:59.920Z,9.86
2017-04-07T11:36:00.254Z,9.83
2017-04-07T11:36:59.991Z,9.89
2017-04-07T11:38:00.025Z,9.88
2017-04-07T11:39:00.059Z,10.07
2017-04-07T11:40:00.093Z,10.07
2017-04-07T11:41:00.134Z,10.07
2017-04-07T11:42:00.161Z,10.06
2017-04-07T11:43:00.203Z,10.07
2017-04-07T11:44:00.236Z,10.14
2017-04-07T11:45:00.272Z,10.19
2017-04-07T11:46:00.608Z,10.18
2017-04-07T11:47:00.356Z,10.1
2017-04-07T11:48:00.381Z,10.19
2017-04-07T11:49:00.410Z,10.18
2017-04-07T11:50:00.750Z,10.22
2017-04-07T11:51:00.483Z,10.33
2017-04-07T11:52:00.527Z,10.24
2017-04-07T11:53:00.556Z,10.3
2017-04-07T11:54:00.590Z,10.3
2017-04-07T11:55:00.623Z,10.26
2017-04-07T11:56:00.658Z,10.25
2017-04-07T11:57:00.702Z,10.3
2017-04-07T11:58:00.788Z,10.3
2017-04-07T11:59:00.769Z,10.3
2017-04-07T12:00:01.103Z,10.25
2017-04-07T12:01:00.845Z,10.24
2017-04-07T12:02:00.877Z,10.33
2017-04-07T12:03:00.917Z,10.37
2017-04-07T12:04:00.949Z,10.39
2017-04-07T12:05:00.981Z,10.39
2017-04-07T12:06:01.017Z,10.43
2017-04-07T12:07:01.053Z,10.33
2017-04-07T12:08:01.085Z,10.39
2017-04-07T12:09:01.157Z,10.34
2017-04-07T12:10:01.191Z,10.43
2017-04-07T12:11:01.195Z,10.37
2017-04-07T12:12:01.225Z,10.51
2017-04-07T12:13:01.259Z,10.37
2017-04-07T12:14:01.614Z,10.39
2017-04-07T12:15:01.332Z,10.42
2017-04-07T12:16:01.672Z,10.32
2017-04-07T12:17:01.424Z,10.36
2017-04-07T12:18:01.438Z,10.34
2017-04-07T12:19:01.475Z,10.33
2017-04-07T12:20:01.513Z,10.42
2017-04-07T12:21:01.543Z,10.37
2017-04-07T12:22:01.581Z,10.4
2017-04-07T12:23:01.619Z,10.39
2017-04-07T12:24:01.955Z,10.32
2017-04-07T12:25:01.994Z,10.4
2017-04-07T12:26:01.718Z,10.34
2017-04-07T12:27:02.053Z,10.33
2017-04-07T12:28:01.786Z,10.37
2017-04-07T12:29:01.829Z,10.44
2017-04-07T12:30:01.862Z,10.42
2017-04-07T12:31:01.891Z,10.51
2017-04-07T12:32:02.237Z,10.4
2017-04-07T12:33:01.974Z,10.47
2017-04-07T12:34:02.306Z,10.46
2017-04-07T12:35:02.042Z,10.43
2017-04-07T12:36:02.586Z,10.46
2017-04-07T12:37:02.114Z,10.56
2017-04-07T12:38:02.148Z,10.46
2017-04-07T12:39:02.184Z,10.51
2017-04-07T12:40:02.535Z,10.53
2017-04-07T12:41:02.249Z,10.53
2017-04-07T12:42:02.587Z,10.58
2017-04-07T12:43:02.320Z,10.58
2017-04-07T12:44:02.666Z,10.53
2017-04-07T12:45:02.396Z,10.65
2017-04-07T12:46:02.731Z,10.55
2017-04-07T12:47:02.465Z,10.62
2017-04-07T12:48:02.497Z,10.63
2017-04-07T12:49:02.534Z,10.55
2017-04-07T12:50:02.570Z,10.56
2017-04-07T12:51:02.603Z,10.52
2017-04-07T12:52:02.942Z,10.47
2017-04-07T12:53:02.671Z,10.55
2017-04-07T12:54:02.711Z,10.58
2017-04-07T12:55:02.747Z,10.58
2017-04-07T12:56:03.085Z,10.56
2017-04-07T12:57:02.816Z,10.56
2017-04-07T12:58:02.851Z,10.53
2017-04-07T12:59:02.886Z,10.62
2017-04-07T13:00:02.924Z,10.52
2017-04-07T13:01:02.958Z,10.56
2017-04-07T13:02:02.994Z,10.62
2017-04-07T13:03:03.289Z,10.58
2017-04-07T13:04:03.071Z,10.63
2017-04-07T13:05:03.105Z,10.55
2017-04-07T13:06:03.151Z,10.65
2017-04-07T13:07:03.474Z,10.6
2017-04-07T13:08:03.395Z,10.7
2017-04-07T13:09:03.239Z,10.62
2017-04-07T13:10:03.272Z,10.65
2017-04-07T13:11:03.313Z,10.68
2017-04-07T13:12:03.344Z,10.66
2017-04-07T13:13:03.382Z,10.68
2017-04-07T13:14:03.412Z,10.73
2017-04-07T13:15:03.462Z,10.68
2017-04-07T13:16:03.490Z,10.66
2017-04-07T13:17:03.520Z,10.68
2017-04-07T13:18:03.560Z,10.68